sensor_id;sensor_type;location;lat;lon;timestamp;temperature;humidity
45409;DHT22;31162;51.076;3.784;2023-04-25T00:01:33;9.70;99.90
45409;DHT22;31162;51.076;3.784;2023-04-25T00:04:02;9.70;99.90
45409;DHT22;31162;51.076;3.784;2023-04-25T00:06:28;9.80;99.90
45409;DHT22;31162;51.076;3.784;2023-04-25T00:08:55;9.80;99.90
45409;DHT22;31162;51.076;3.784;2023-04-25T00:11:22;9.90;99.90
45409;DHT22;31162;51.076;3.784;2023-04-25T00:13:48;9.90;99.90
45409;DHT22;31162;51.076;3.784;2023-04-25T00:16:16;10.00;99.90
45409;DHT22;31162;51.076;3.784;2023-04-25T00:18:42;10.10;99.90
45409;DHT22;31162;51.076;3.784;2023-04-25T00:21:08;10.10;99.90
45409;DHT22;31162;51.076;3.784;2023-04-25T00:23:34;10.20;99.90
45409;DHT22;31162;51.076;3.784;2023-04-25T00:26:02;10.20;99.90
45409;DHT22;31162;51.076;3.784;2023-04-25T00:28:28;10.30;99.90
45409;DHT22;31162;51.076;3.784;2023-04-25T00:30:54;10.30;99.90
45409;DHT22;31162;51.076;3.784;2023-04-25T00:33:19;10.30;99.90
45409;DHT22;31162;51.076;3.784;2023-04-25T00:35:45;10.30;99.90
45409;DHT22;31162;51.076;3.784;2023-04-25T00:38:11;10.30;99.90
45409;DHT22;31162;51.076;3.784;2023-04-25T00:40:37;10.20;99.90
45409;DHT22;31162;51.076;3.784;2023-04-25T00:43:04;10.00;99.90
45409;DHT22;31162;51.076;3.784;2023-04-25T00:45:30;10.00;99.90
45409;DHT22;31162;51.076;3.784;2023-04-25T00:47:56;10.00;99.90
45409;DHT22;31162;51.076;3.784;2023-04-25T00:50:22;10.10;99.90
45409;DHT22;31162;51.076;3.784;2023-04-25T00:52:51;10.10;99.90
45409;DHT22;31162;51.076;3.784;2023-04-25T00:55:17;10.00;99.90
45409;DHT22;31162;51.076;3.784;2023-04-25T00:57:43;9.90;99.90
45409;DHT22;31162;51.076;3.784;2023-04-25T01:00:09;10.00;99.90
45409;DHT22;31162;51.076;3.784;2023-04-25T01:02:37;10.00;99.90
45409;DHT22;31162;51.076;3.784;2023-04-25T01:05:03;9.90;99.90
45409;DHT22;31162;51.076;3.784;2023-04-25T01:07:29;10.00;99.90
45409;DHT22;31162;51.076;3.784;2023-04-25T01:09:55;10.00;99.90
45409;DHT22;31162;51.076;3.784;2023-04-25T01:12:21;9.90;99.90
45409;DHT22;31162;51.076;3.784;2023-04-25T01:14:47;10.00;99.90
45409;DHT22;31162;51.076;3.784;2023-04-25T01:17:13;10.00;99.90
45409;DHT22;31162;51.076;3.784;2023-04-25T01:19:40;10.00;99.90
45409;DHT22;31162;51.076;3.784;2023-04-25T01:22:06;9.90;99.90
45409;DHT22;31162;51.076;3.784;2023-04-25T01:24:32;9.80;99.90
45409;DHT22;31162;51.076;3.784;2023-04-25T01:26:59;9.70;99.90
45409;DHT22;31162;51.076;3.784;2023-04-25T01:29:26;9.60;99.90
45409;DHT22;31162;51.076;3.784;2023-04-25T01:31:53;9.60;99.90
45409;DHT22;31162;51.076;3.784;2023-04-25T01:34:19;9.60;99.90
45409;DHT22;31162;51.076;3.784;2023-04-25T01:36:45;9.70;99.90
45409;DHT22;31162;51.076;3.784;2023-04-25T01:39:11;9.70;99.90
45409;DHT22;31162;51.076;3.784;2023-04-25T01:41:37;9.70;99.90
45409;DHT22;31162;51.076;3.784;2023-04-25T01:44:03;9.70;99.90
45409;DHT22;31162;51.076;3.784;2023-04-25T01:46:29;9.70;99.90
45409;DHT22;31162;51.076;3.784;2023-04-25T01:48:54;9.70;99.90
45409;DHT22;31162;51.076;3.784;2023-04-25T01:51:20;9.70;99.90
45409;DHT22;31162;51.076;3.784;2023-04-25T01:53:46;9.70;99.90
45409;DHT22;31162;51.076;3.784;2023-04-25T01:56:11;9.80;99.90
45409;DHT22;31162;51.076;3.784;2023-04-25T01:58:37;9.60;99.90
45409;DHT22;31162;51.076;3.784;2023-04-25T02:01:03;9.50;99.90
45409;DHT22;31162;51.076;3.784;2023-04-25T02:03:30;9.40;99.90
45409;DHT22;31162;51.076;3.784;2023-04-25T02:05:56;9.30;99.90
45409;DHT22;31162;51.076;3.784;2023-04-25T02:08:22;9.30;99.90
45409;DHT22;31162;51.076;3.784;2023-04-25T02:10:47;9.20;99.90
45409;DHT22;31162;51.076;3.784;2023-04-25T02:13:13;9.20;99.90
45409;DHT22;31162;51.076;3.784;2023-04-25T02:15:39;9.30;99.90
45409;DHT22;31162;51.076;3.784;2023-04-25T02:18:05;9.20;99.90
45409;DHT22;31162;51.076;3.784;2023-04-25T02:20:31;9.00;99.90
45409;DHT22;31162;51.076;3.784;2023-04-25T02:22:57;9.00;99.90
45409;DHT22;31162;51.076;3.784;2023-04-25T02:25:23;9.00;99.90
45409;DHT22;31162;51.076;3.784;2023-04-25T02:27:49;9.00;99.90
45409;DHT22;31162;51.076;3.784;2023-04-25T02:30:15;9.00;99.90
45409;DHT22;31162;51.076;3.784;2023-04-25T02:32:41;8.90;99.90
45409;DHT22;31162;51.076;3.784;2023-04-25T02:35:07;8.90;99.90
45409;DHT22;31162;51.076;3.784;2023-04-25T02:37:34;9.10;99.90
45409;DHT22;31162;51.076;3.784;2023-04-25T02:40:01;9.00;99.90
45409;DHT22;31162;51.076;3.784;2023-04-25T02:42:27;9.00;99.90
45409;DHT22;31162;51.076;3.784;2023-04-25T02:44:55;9.00;99.90
45409;DHT22;31162;51.076;3.784;2023-04-25T02:47:20;8.90;99.90
45409;DHT22;31162;51.076;3.784;2023-04-25T02:49:46;8.90;99.90
45409;DHT22;31162;51.076;3.784;2023-04-25T02:52:12;8.80;99.90
45409;DHT22;31162;51.076;3.784;2023-04-25T02:54:39;8.70;99.90
45409;DHT22;31162;51.076;3.784;2023-04-25T02:57:05;8.80;99.90
45409;DHT22;31162;51.076;3.784;2023-04-25T02:59:31;8.80;99.90
45409;DHT22;31162;51.076;3.784;2023-04-25T03:01:56;8.90;99.90
45409;DHT22;31162;51.076;3.784;2023-04-25T03:04:22;8.90;99.90
45409;DHT22;31162;51.076;3.784;2023-04-25T03:06:52;8.90;99.90
45409;DHT22;31162;51.076;3.784;2023-04-25T03:09:18;8.90;99.90
45409;DHT22;31162;51.076;3.784;2023-04-25T03:11:45;8.90;99.90
45409;DHT22;31162;51.076;3.784;2023-04-25T03:14:12;8.90;99.90
45409;DHT22;31162;51.076;3.784;2023-04-25T03:16:38;8.90;99.90
45409;DHT22;31162;51.076;3.784;2023-04-25T03:19:04;8.80;99.90
45409;DHT22;31162;51.076;3.784;2023-04-25T03:21:34;8.70;99.90
45409;DHT22;31162;51.076;3.784;2023-04-25T03:24:04;8.70;99.90
45409;DHT22;31162;51.076;3.784;2023-04-25T03:26:30;8.70;99.90
45409;DHT22;31162;51.076;3.784;2023-04-25T03:28:58;8.70;99.90
45409;DHT22;31162;51.076;3.784;2023-04-25T03:31:23;8.60;99.90
45409;DHT22;31162;51.076;3.784;2023-04-25T03:33:49;8.60;99.90
45409;DHT22;31162;51.076;3.784;2023-04-25T03:36:14;8.60;99.90
45409;DHT22;31162;51.076;3.784;2023-04-25T03:38:40;8.40;99.90
45409;DHT22;31162;51.076;3.784;2023-04-25T03:41:07;8.30;99.90
45409;DHT22;31162;51.076;3.784;2023-04-25T03:43:33;8.20;99.90
45409;DHT22;31162;51.076;3.784;2023-04-25T03:45:58;8.10;99.90
45409;DHT22;31162;51.076;3.784;2023-04-25T03:48:25;8.20;99.90
45409;DHT22;31162;51.076;3.784;2023-04-25T03:50:52;8.30;99.90
45409;DHT22;31162;51.076;3.784;2023-04-25T03:53:17;8.40;99.90
45409;DHT22;31162;51.076;3.784;2023-04-25T03:55:43;8.50;99.90
45409;DHT22;31162;51.076;3.784;2023-04-25T03:58:09;8.40;99.90
45409;DHT22;31162;51.076;3.784;2023-04-25T04:00:35;8.50;99.90
45409;DHT22;31162;51.076;3.784;2023-04-25T04:03:01;8.60;99.90
45409;DHT22;31162;51.076;3.784;2023-04-25T04:05:27;8.60;99.90
45409;DHT22;31162;51.076;3.784;2023-04-25T04:07:53;8.50;99.90
45409;DHT22;31162;51.076;3.784;2023-04-25T04:10:19;8.60;99.90
45409;DHT22;31162;51.076;3.784;2023-04-25T04:12:44;8.40;99.90
45409;DHT22;31162;51.076;3.784;2023-04-25T04:15:10;8.40;99.90
45409;DHT22;31162;51.076;3.784;2023-04-25T04:17:36;8.40;99.90
45409;DHT22;31162;51.076;3.784;2023-04-25T04:20:02;8.50;99.90
45409;DHT22;31162;51.076;3.784;2023-04-25T04:22:29;8.50;99.90
45409;DHT22;31162;51.076;3.784;2023-04-25T04:24:54;8.50;99.90
45409;DHT22;31162;51.076;3.784;2023-04-25T04:27:24;8.40;99.90
45409;DHT22;31162;51.076;3.784;2023-04-25T04:29:50;8.30;99.90
45409;DHT22;31162;51.076;3.784;2023-04-25T04:32:20;8.30;99.90
45409;DHT22;31162;51.076;3.784;2023-04-25T04:34:45;8.30;99.90
45409;DHT22;31162;51.076;3.784;2023-04-25T04:37:12;8.30;99.90
45409;DHT22;31162;51.076;3.784;2023-04-25T04:39:38;8.30;99.90
45409;DHT22;31162;51.076;3.784;2023-04-25T04:42:04;8.40;99.90
45409;DHT22;31162;51.076;3.784;2023-04-25T04:44:30;8.40;99.90
45409;DHT22;31162;51.076;3.784;2023-04-25T04:46:59;8.30;99.90
45409;DHT22;31162;51.076;3.784;2023-04-25T04:49:25;8.30;99.90
45409;DHT22;31162;51.076;3.784;2023-04-25T04:51:51;8.40;99.90
45409;DHT22;31162;51.076;3.784;2023-04-25T04:54:17;8.40;99.90
45409;DHT22;31162;51.076;3.784;2023-04-25T04:56:43;8.50;99.90
45409;DHT22;31162;51.076;3.784;2023-04-25T04:59:09;8.60;99.90
45409;DHT22;31162;51.076;3.784;2023-04-25T05:01:35;8.60;99.90
45409;DHT22;31162;51.076;3.784;2023-04-25T05:04:01;8.60;99.90
45409;DHT22;31162;51.076;3.784;2023-04-25T05:06:28;8.60;99.90
45409;DHT22;31162;51.076;3.784;2023-04-25T05:08:57;8.60;99.90
45409;DHT22;31162;51.076;3.784;2023-04-25T05:11:24;8.60;99.90
45409;DHT22;31162;51.076;3.784;2023-04-25T05:13:51;8.60;99.90
45409;DHT22;31162;51.076;3.784;2023-04-25T05:16:17;8.60;99.90
45409;DHT22;31162;51.076;3.784;2023-04-25T05:18:42;8.80;99.90
45409;DHT22;31162;51.076;3.784;2023-04-25T05:21:08;8.90;99.90
45409;DHT22;31162;51.076;3.784;2023-04-25T05:23:34;9.10;99.90
45409;DHT22;31162;51.076;3.784;2023-04-25T05:26:00;9.20;99.90
45409;DHT22;31162;51.076;3.784;2023-04-25T05:28:25;9.30;99.90
45409;DHT22;31162;51.076;3.784;2023-04-25T05:30:51;9.40;99.90
45409;DHT22;31162;51.076;3.784;2023-04-25T05:33:20;9.40;99.90
45409;DHT22;31162;51.076;3.784;2023-04-25T05:35:46;9.40;99.90
45409;DHT22;31162;51.076;3.784;2023-04-25T05:38:11;9.50;99.90
45409;DHT22;31162;51.076;3.784;2023-04-25T05:40:38;9.50;99.90
45409;DHT22;31162;51.076;3.784;2023-04-25T05:43:03;9.50;99.90
45409;DHT22;31162;51.076;3.784;2023-04-25T05:45:29;9.50;99.90
45409;DHT22;31162;51.076;3.784;2023-04-25T05:47:55;9.50;99.90
45409;DHT22;31162;51.076;3.784;2023-04-25T05:50:20;9.60;99.90
45409;DHT22;31162;51.076;3.784;2023-04-25T05:52:46;9.70;99.90
45409;DHT22;31162;51.076;3.784;2023-04-25T05:55:12;9.90;99.90
45409;DHT22;31162;51.076;3.784;2023-04-25T05:57:38;10.00;99.90
45409;DHT22;31162;51.076;3.784;2023-04-25T06:00:08;10.20;99.90
45409;DHT22;31162;51.076;3.784;2023-04-25T06:02:34;10.20;99.90
45409;DHT22;31162;51.076;3.784;2023-04-25T06:05:00;10.20;99.90
45409;DHT22;31162;51.076;3.784;2023-04-25T06:07:31;10.30;99.90
45409;DHT22;31162;51.076;3.784;2023-04-25T06:09:56;10.40;99.90
45409;DHT22;31162;51.076;3.784;2023-04-25T06:12:22;10.40;99.90
45409;DHT22;31162;51.076;3.784;2023-04-25T06:14:48;10.30;99.90
45409;DHT22;31162;51.076;3.784;2023-04-25T06:17:14;10.40;99.90
45409;DHT22;31162;51.076;3.784;2023-04-25T06:19:39;10.50;99.90
45409;DHT22;31162;51.076;3.784;2023-04-25T06:22:05;10.30;99.90
45409;DHT22;31162;51.076;3.784;2023-04-25T06:24:32;10.40;99.90
45409;DHT22;31162;51.076;3.784;2023-04-25T06:26:58;10.40;99.90
45409;DHT22;31162;51.076;3.784;2023-04-25T06:29:23;10.60;99.90
45409;DHT22;31162;51.076;3.784;2023-04-25T06:31:49;10.50;99.90
45409;DHT22;31162;51.076;3.784;2023-04-25T06:34:15;10.30;99.90
45409;DHT22;31162;51.076;3.784;2023-04-25T06:36:41;10.40;99.90
45409;DHT22;31162;51.076;3.784;2023-04-25T06:39:07;10.40;99.90
45409;DHT22;31162;51.076;3.784;2023-04-25T06:41:33;10.50;99.90
45409;DHT22;31162;51.076;3.784;2023-04-25T06:43:58;10.50;99.90
45409;DHT22;31162;51.076;3.784;2023-04-25T06:46:24;10.20;99.90
45409;DHT22;31162;51.076;3.784;2023-04-25T06:48:50;10.20;99.90
45409;DHT22;31162;51.076;3.784;2023-04-25T06:51:15;10.20;99.90
45409;DHT22;31162;51.076;3.784;2023-04-25T06:53:41;9.90;99.90
45409;DHT22;31162;51.076;3.784;2023-04-25T06:56:06;10.20;99.90
45409;DHT22;31162;51.076;3.784;2023-04-25T06:58:35;10.30;99.90
45409;DHT22;31162;51.076;3.784;2023-04-25T07:01:01;10.60;99.90
45409;DHT22;31162;51.076;3.784;2023-04-25T07:03:26;10.90;99.90
45409;DHT22;31162;51.076;3.784;2023-04-25T07:05:52;11.30;99.90
45409;DHT22;31162;51.076;3.784;2023-04-25T07:08:20;11.60;99.90
45409;DHT22;31162;51.076;3.784;2023-04-25T07:10:46;11.60;99.90
45409;DHT22;31162;51.076;3.784;2023-04-25T07:13:12;11.70;99.90
45409;DHT22;31162;51.076;3.784;2023-04-25T07:15:38;12.00;99.90
45409;DHT22;31162;51.076;3.784;2023-04-25T07:18:03;12.50;99.90
45409;DHT22;31162;51.076;3.784;2023-04-25T07:20:29;13.50;99.90
45409;DHT22;31162;51.076;3.784;2023-04-25T07:22:56;16.00;99.90
45409;DHT22;31162;51.076;3.784;2023-04-25T07:25:22;17.80;99.90
45409;DHT22;31162;51.076;3.784;2023-04-25T07:27:48;20.30;97.60
45409;DHT22;31162;51.076;3.784;2023-04-25T07:30:13;22.20;93.10
45409;DHT22;31162;51.076;3.784;2023-04-25T07:32:39;21.60;91.30
45409;DHT22;31162;51.076;3.784;2023-04-25T07:35:06;20.10;92.30
45409;DHT22;31162;51.076;3.784;2023-04-25T07:37:33;19.50;92.20
45409;DHT22;31162;51.076;3.784;2023-04-25T07:39:59;17.80;93.90
45409;DHT22;31162;51.076;3.784;2023-04-25T07:42:24;16.70;95.50
45409;DHT22;31162;51.076;3.784;2023-04-25T07:44:50;15.70;97.60
45409;DHT22;31162;51.076;3.784;2023-04-25T07:47:17;14.40;99.60
45409;DHT22;31162;51.076;3.784;2023-04-25T07:49:44;13.10;99.90
45409;DHT22;31162;51.076;3.784;2023-04-25T07:52:13;12.70;99.90
45409;DHT22;31162;51.076;3.784;2023-04-25T07:54:39;14.90;99.90
45409;DHT22;31162;51.076;3.784;2023-04-25T07:57:04;18.20;96.90
45409;DHT22;31162;51.076;3.784;2023-04-25T07:59:31;20.10;93.70
45409;DHT22;31162;51.076;3.784;2023-04-25T08:01:57;20.20;92.50
45409;DHT22;31162;51.076;3.784;2023-04-25T08:04:23;20.80;91.10
45409;DHT22;31162;51.076;3.784;2023-04-25T08:06:49;21.10;90.70
45409;DHT22;31162;51.076;3.784;2023-04-25T08:09:15;22.00;88.00
45409;DHT22;31162;51.076;3.784;2023-04-25T08:11:41;20.80;87.80
45409;DHT22;31162;51.076;3.784;2023-04-25T08:14:07;19.00;89.00
45409;DHT22;31162;51.076;3.784;2023-04-25T08:16:33;18.20;91.30
45409;DHT22;31162;51.076;3.784;2023-04-25T08:18:59;19.80;90.40
45409;DHT22;31162;51.076;3.784;2023-04-25T08:21:25;21.60;87.90
45409;DHT22;31162;51.076;3.784;2023-04-25T08:23:55;21.90;83.00
45409;DHT22;31162;51.076;3.784;2023-04-25T08:26:21;21.90;81.60
45409;DHT22;31162;51.076;3.784;2023-04-25T08:28:46;22.80;79.60
45409;DHT22;31162;51.076;3.784;2023-04-25T08:31:12;22.10;78.60
45409;DHT22;31162;51.076;3.784;2023-04-25T08:33:40;22.70;77.20
45409;DHT22;31162;51.076;3.784;2023-04-25T08:36:06;23.90;76.40
45409;DHT22;31162;51.076;3.784;2023-04-25T08:38:32;24.40;74.60
45409;DHT22;31162;51.076;3.784;2023-04-25T08:41:00;24.70;74.60
45409;DHT22;31162;51.076;3.784;2023-04-25T08:43:29;25.10;74.30
45409;DHT22;31162;51.076;3.784;2023-04-25T08:45:59;24.80;72.10
45409;DHT22;31162;51.076;3.784;2023-04-25T08:48:27;25.10;70.70
45409;DHT22;31162;51.076;3.784;2023-04-25T08:50:56;24.70;70.00
45409;DHT22;31162;51.076;3.784;2023-04-25T08:53:26;25.10;70.50
45409;DHT22;31162;51.076;3.784;2023-04-25T08:55:53;25.90;70.00
45409;DHT22;31162;51.076;3.784;2023-04-25T08:58:20;26.90;67.50
45409;DHT22;31162;51.076;3.784;2023-04-25T09:00:47;26.80;67.30
45409;DHT22;31162;51.076;3.784;2023-04-25T09:03:13;23.80;68.90
45409;DHT22;31162;51.076;3.784;2023-04-25T09:05:40;21.60;70.90
45409;DHT22;31162;51.076;3.784;2023-04-25T09:08:06;19.40;73.60
45409;DHT22;31162;51.076;3.784;2023-04-25T09:10:32;18.10;75.80
45409;DHT22;31162;51.076;3.784;2023-04-25T09:13:09;17.10;78.40
45409;DHT22;31162;51.076;3.784;2023-04-25T09:15:53;16.10;84.60
45409;DHT22;31162;51.076;3.784;2023-04-25T09:18:26;14.00;94.10
45409;DHT22;31162;51.076;3.784;2023-04-25T09:20:54;12.70;99.90
45409;DHT22;31162;51.076;3.784;2023-04-25T09:23:20;12.10;99.90
45409;DHT22;31162;51.076;3.784;2023-04-25T09:25:51;11.70;99.90
45409;DHT22;31162;51.076;3.784;2023-04-25T09:28:23;11.30;99.90
45409;DHT22;31162;51.076;3.784;2023-04-25T09:30:55;11.10;99.90
45409;DHT22;31162;51.076;3.784;2023-04-25T09:33:35;10.80;99.90
45409;DHT22;31162;51.076;3.784;2023-04-25T09:36:09;10.80;99.90
45409;DHT22;31162;51.076;3.784;2023-04-25T09:38:41;11.30;99.90
45409;DHT22;31162;51.076;3.784;2023-04-25T09:41:08;11.80;99.90
45409;DHT22;31162;51.076;3.784;2023-04-25T09:43:34;12.20;99.90
45409;DHT22;31162;51.076;3.784;2023-04-25T09:46:00;12.60;99.90
45409;DHT22;31162;51.076;3.784;2023-04-25T09:48:27;12.80;99.90
45409;DHT22;31162;51.076;3.784;2023-04-25T09:51:12;13.20;99.90
45409;DHT22;31162;51.076;3.784;2023-04-25T09:53:43;13.90;99.90
45409;DHT22;31162;51.076;3.784;2023-04-25T09:56:11;14.60;99.90
45409;DHT22;31162;51.076;3.784;2023-04-25T09:58:40;14.60;99.90
45409;DHT22;31162;51.076;3.784;2023-04-25T10:01:08;14.80;99.90
45409;DHT22;31162;51.076;3.784;2023-04-25T10:03:36;14.70;99.90
45409;DHT22;31162;51.076;3.784;2023-04-25T10:06:04;14.10;99.90
45409;DHT22;31162;51.076;3.784;2023-04-25T10:08:35;14.20;99.90
45409;DHT22;31162;51.076;3.784;2023-04-25T10:11:04;14.60;99.90
45409;DHT22;31162;51.076;3.784;2023-04-25T10:13:31;15.40;99.90
45409;DHT22;31162;51.076;3.784;2023-04-25T10:16:01;16.50;97.70
45409;DHT22;31162;51.076;3.784;2023-04-25T10:18:28;16.80;97.60
45409;DHT22;31162;51.076;3.784;2023-04-25T10:20:56;17.40;97.00
45409;DHT22;31162;51.076;3.784;2023-04-25T10:23:23;16.30;96.50
45409;DHT22;31162;51.076;3.784;2023-04-25T10:25:50;14.70;99.70
45409;DHT22;31162;51.076;3.784;2023-04-25T10:28:17;14.00;99.90
45409;DHT22;31162;51.076;3.784;2023-04-25T10:30:59;13.60;99.90
45409;DHT22;31162;51.076;3.784;2023-04-25T10:36:31;13.10;99.90
45409;DHT22;31162;51.076;3.784;2023-04-25T10:38:58;13.70;99.90
45409;DHT22;31162;51.076;3.784;2023-04-25T10:41:32;14.10;99.90
45409;DHT22;31162;51.076;3.784;2023-04-25T10:44:10;13.80;99.60
45409;DHT22;31162;51.076;3.784;2023-04-25T10:46:36;13.50;99.90
45409;DHT22;31162;51.076;3.784;2023-04-25T10:49:02;13.30;99.90
45409;DHT22;31162;51.076;3.784;2023-04-25T10:51:31;13.00;99.90
45409;DHT22;31162;51.076;3.784;2023-04-25T10:54:01;13.00;99.80
45409;DHT22;31162;51.076;3.784;2023-04-25T10:56:35;13.60;98.50
45409;DHT22;31162;51.076;3.784;2023-04-25T10:59:16;13.70;97.60
45409;DHT22;31162;51.076;3.784;2023-04-25T11:01:51;14.00;98.50
45409;DHT22;31162;51.076;3.784;2023-04-25T11:04:25;14.80;97.20
45409;DHT22;31162;51.076;3.784;2023-04-25T11:09:33;16.30;93.50
45409;DHT22;31162;51.076;3.784;2023-04-25T11:11:59;17.50;91.60
45409;DHT22;31162;51.076;3.784;2023-04-25T11:14:26;17.90;90.50
45409;DHT22;31162;51.076;3.784;2023-04-25T11:16:59;17.40;90.10
45409;DHT22;31162;51.076;3.784;2023-04-25T11:19:26;17.10;89.80
45409;DHT22;31162;51.076;3.784;2023-04-25T11:21:55;16.60;90.10
45409;DHT22;31162;51.076;3.784;2023-04-25T11:24:32;16.40;92.00
45409;DHT22;31162;51.076;3.784;2023-04-25T11:27:02;16.60;91.90
45409;DHT22;31162;51.076;3.784;2023-04-25T11:29:30;17.50;90.90
45409;DHT22;31162;51.076;3.784;2023-04-25T11:31:56;18.60;87.60
45409;DHT22;31162;51.076;3.784;2023-04-25T11:34:23;20.20;87.20
45409;DHT22;31162;51.076;3.784;2023-04-25T11:36:50;22.10;82.50
45409;DHT22;31162;51.076;3.784;2023-04-25T11:39:18;21.80;82.50
45409;DHT22;31162;51.076;3.784;2023-04-25T11:41:44;21.20;82.00
45409;DHT22;31162;51.076;3.784;2023-04-25T11:44:10;22.10;81.60
45409;DHT22;31162;51.076;3.784;2023-04-25T11:46:35;22.00;75.10
45409;DHT22;31162;51.076;3.784;2023-04-25T11:49:01;20.60;76.10
45409;DHT22;31162;51.076;3.784;2023-04-25T11:51:27;19.90;76.30
45409;DHT22;31162;51.076;3.784;2023-04-25T11:53:53;19.30;77.10
45409;DHT22;31162;51.076;3.784;2023-04-25T11:56:19;18.90;79.10
45409;DHT22;31162;51.076;3.784;2023-04-25T12:01:36;20.60;79.90
45409;DHT22;31162;51.076;3.784;2023-04-25T12:04:13;20.20;77.10
45409;DHT22;31162;51.076;3.784;2023-04-25T12:06:39;18.70;80.10
45409;DHT22;31162;51.076;3.784;2023-04-25T12:09:08;18.10;82.50
45409;DHT22;31162;51.076;3.784;2023-04-25T12:14:08;17.40;85.60
45409;DHT22;31162;51.076;3.784;2023-04-25T12:16:44;16.80;86.70
45409;DHT22;31162;51.076;3.784;2023-04-25T12:19:13;16.50;88.30
45409;DHT22;31162;51.076;3.784;2023-04-25T12:21:39;16.80;89.50
45409;DHT22;31162;51.076;3.784;2023-04-25T12:24:13;16.90;89.30
45409;DHT22;31162;51.076;3.784;2023-04-25T12:29:32;15.50;90.20
45409;DHT22;31162;51.076;3.784;2023-04-25T12:32:01;15.20;90.30
45409;DHT22;31162;51.076;3.784;2023-04-25T12:34:27;15.20;90.80
45409;DHT22;31162;51.076;3.784;2023-04-25T12:36:53;15.70;90.20
45409;DHT22;31162;51.076;3.784;2023-04-25T12:39:24;15.50;91.00
45409;DHT22;31162;51.076;3.784;2023-04-25T12:41:53;15.50;89.90
45409;DHT22;31162;51.076;3.784;2023-04-25T12:44:24;15.70;89.20
45409;DHT22;31162;51.076;3.784;2023-04-25T12:46:49;15.50;89.60
45409;DHT22;31162;51.076;3.784;2023-04-25T12:49:15;15.80;90.20
45409;DHT22;31162;51.076;3.784;2023-04-25T12:51:41;15.90;88.10
45409;DHT22;31162;51.076;3.784;2023-04-25T12:54:07;14.80;91.30
45409;DHT22;31162;51.076;3.784;2023-04-25T12:56:34;14.40;92.00
45409;DHT22;31162;51.076;3.784;2023-04-25T12:58:59;14.10;92.60
45409;DHT22;31162;51.076;3.784;2023-04-25T13:01:26;13.90;92.60
45409;DHT22;31162;51.076;3.784;2023-04-25T13:03:52;13.70;92.80
45409;DHT22;31162;51.076;3.784;2023-04-25T13:06:19;13.80;93.10
45409;DHT22;31162;51.076;3.784;2023-04-25T13:08:45;13.80;93.70
45409;DHT22;31162;51.076;3.784;2023-04-25T13:11:39;13.50;92.90
45409;DHT22;31162;51.076;3.784;2023-04-25T13:14:06;13.70;93.90
45409;DHT22;31162;51.076;3.784;2023-04-25T13:16:33;14.20;93.40
45409;DHT22;31162;51.076;3.784;2023-04-25T13:18:58;13.90;94.10
45409;DHT22;31162;51.076;3.784;2023-04-25T13:21:24;13.70;94.50
45409;DHT22;31162;51.076;3.784;2023-04-25T13:23:50;13.70;95.80
45409;DHT22;31162;51.076;3.784;2023-04-25T13:26:19;13.70;95.20
45409;DHT22;31162;51.076;3.784;2023-04-25T13:28:45;13.80;95.30
45409;DHT22;31162;51.076;3.784;2023-04-25T13:31:10;14.10;95.40
45409;DHT22;31162;51.076;3.784;2023-04-25T13:33:36;14.40;94.10
45409;DHT22;31162;51.076;3.784;2023-04-25T13:36:02;14.70;93.70
45409;DHT22;31162;51.076;3.784;2023-04-25T13:38:30;15.00;92.80
45409;DHT22;31162;51.076;3.784;2023-04-25T13:40:56;15.00;91.90
45409;DHT22;31162;51.076;3.784;2023-04-25T13:43:22;14.70;93.20
45409;DHT22;31162;51.076;3.784;2023-04-25T13:45:49;14.90;94.40
45409;DHT22;31162;51.076;3.784;2023-04-25T13:48:15;15.00;93.60
45409;DHT22;31162;51.076;3.784;2023-04-25T13:50:40;15.20;93.30
45409;DHT22;31162;51.076;3.784;2023-04-25T13:53:06;14.80;91.40
45409;DHT22;31162;51.076;3.784;2023-04-25T13:55:33;14.90;92.70
45409;DHT22;31162;51.076;3.784;2023-04-25T13:57:59;15.40;92.60
45409;DHT22;31162;51.076;3.784;2023-04-25T14:00:24;15.90;91.50
45409;DHT22;31162;51.076;3.784;2023-04-25T14:02:50;16.30;91.20
45409;DHT22;31162;51.076;3.784;2023-04-25T14:05:16;16.30;91.10
45409;DHT22;31162;51.076;3.784;2023-04-25T14:07:41;15.50;90.40
45409;DHT22;31162;51.076;3.784;2023-04-25T14:10:07;15.10;91.40
45409;DHT22;31162;51.076;3.784;2023-04-25T14:12:33;14.90;92.50
45409;DHT22;31162;51.076;3.784;2023-04-25T14:14:59;15.40;92.60
45409;DHT22;31162;51.076;3.784;2023-04-25T14:17:25;15.20;90.70
45409;DHT22;31162;51.076;3.784;2023-04-25T14:19:53;15.10;90.50
45409;DHT22;31162;51.076;3.784;2023-04-25T14:22:19;14.60;90.50
45409;DHT22;31162;51.076;3.784;2023-04-25T14:24:47;14.60;90.20
45409;DHT22;31162;51.076;3.784;2023-04-25T14:27:13;14.70;90.60
45409;DHT22;31162;51.076;3.784;2023-04-25T14:29:39;14.60;90.40
45409;DHT22;31162;51.076;3.784;2023-04-25T14:32:04;14.40;91.40
45409;DHT22;31162;51.076;3.784;2023-04-25T14:34:33;14.20;91.10
45409;DHT22;31162;51.076;3.784;2023-04-25T14:36:59;14.30;91.40
45409;DHT22;31162;51.076;3.784;2023-04-25T14:39:25;14.70;90.90
45409;DHT22;31162;51.076;3.784;2023-04-25T14:41:51;14.40;90.20
45409;DHT22;31162;51.076;3.784;2023-04-25T14:44:16;14.10;90.90
45409;DHT22;31162;51.076;3.784;2023-04-25T14:46:42;13.80;90.60
45409;DHT22;31162;51.076;3.784;2023-04-25T14:49:08;13.60;90.80
45409;DHT22;31162;51.076;3.784;2023-04-25T14:51:34;13.50;91.50
45409;DHT22;31162;51.076;3.784;2023-04-25T14:54:00;13.40;92.00
45409;DHT22;31162;51.076;3.784;2023-04-25T14:56:25;13.30;91.90
45409;DHT22;31162;51.076;3.784;2023-04-25T14:58:51;13.40;92.40
45409;DHT22;31162;51.076;3.784;2023-04-25T15:01:17;13.50;92.20
45409;DHT22;31162;51.076;3.784;2023-04-25T15:03:43;13.00;93.30
45409;DHT22;31162;51.076;3.784;2023-04-25T15:06:08;13.20;93.00
45409;DHT22;31162;51.076;3.784;2023-04-25T15:08:34;13.50;92.40
45409;DHT22;31162;51.076;3.784;2023-04-25T15:11:01;14.10;92.00
45409;DHT22;31162;51.076;3.784;2023-04-25T15:13:28;14.80;91.10
45409;DHT22;31162;51.076;3.784;2023-04-25T15:15:54;15.30;90.50
45409;DHT22;31162;51.076;3.784;2023-04-25T15:18:21;15.30;89.50
45409;DHT22;31162;51.076;3.784;2023-04-25T15:20:48;15.40;90.80
45409;DHT22;31162;51.076;3.784;2023-04-25T15:23:17;15.40;89.40
45409;DHT22;31162;51.076;3.784;2023-04-25T15:25:42;15.20;90.10
45409;DHT22;31162;51.076;3.784;2023-04-25T15:28:08;15.20;91.10
45409;DHT22;31162;51.076;3.784;2023-04-25T15:30:34;15.50;92.20
45409;DHT22;31162;51.076;3.784;2023-04-25T15:33:00;15.30;92.10
45409;DHT22;31162;51.076;3.784;2023-04-25T15:35:25;14.80;92.40
45409;DHT22;31162;51.076;3.784;2023-04-25T15:37:51;14.50;93.30
45409;DHT22;31162;51.076;3.784;2023-04-25T15:40:17;14.60;94.10
45409;DHT22;31162;51.076;3.784;2023-04-25T15:42:47;14.40;94.00
45409;DHT22;31162;51.076;3.784;2023-04-25T15:45:14;14.00;94.30
45409;DHT22;31162;51.076;3.784;2023-04-25T15:47:44;13.70;94.80